createdAt,value
2019-05-17T00:00:19.654Z,13.60
2019-05-17T00:00:53.692Z,13.60
2019-05-17T00:01:27.223Z,13.60
2019-05-17T00:02:01.186Z,13.60
2019-05-17T00:02:37.433Z,13.60
2019-05-17T00:03:10.267Z,13.60
2019-05-17T00:03:44.237Z,13.60
2019-05-17T00:04:18.221Z,13.60
2019-05-17T00:04:51.631Z,13.60
2019-05-17T00:05:26.517Z,13.60
2019-05-17T00:06:00.583Z,13.50
2019-05-17T00:06:34.004Z,13.60
2019-05-17T00:07:08.053Z,13.50
2019-05-17T00:07:42.041Z,13.50
2019-05-17T00:08:16.465Z,13.50
2019-05-17T00:08:51.187Z,13.50
2019-05-17T00:09:26.736Z,13.50
2019-05-17T00:10:00.227Z,13.50
2019-05-17T00:10:34.195Z,13.50
2019-05-17T00:11:08.168Z,13.50
2019-05-17T00:11:41.587Z,13.50
2019-05-17T00:12:16.618Z,13.50
2019-05-17T00:12:50.733Z,13.50
2019-05-17T00:13:26.702Z,13.50
2019-05-17T00:13:59.820Z,13.50
2019-05-17T00:14:33.797Z,13.50
2019-05-17T00:15:08.088Z,13.50
2019-05-17T00:15:42.331Z,13.50
2019-05-17T00:16:17.450Z,13.50
2019-05-17T00:16:51.322Z,13.50
2019-05-17T00:17:26.776Z,13.50
2019-05-17T00:18:00.978Z,13.50
2019-05-17T00:18:34.392Z,13.50
2019-05-17T00:19:08.393Z,13.50
2019-05-17T00:19:42.390Z,13.50
2019-05-17T00:20:17.314Z,13.50
2019-05-17T00:20:51.429Z,13.50
2019-05-17T00:21:27.538Z,13.50
2019-05-17T00:22:00.638Z,13.50
2019-05-17T00:22:36.612Z,13.40
2019-05-17T00:23:10.229Z,13.50
2019-05-17T00:23:43.654Z,13.50
2019-05-17T00:24:18.275Z,13.50
2019-05-17T00:24:52.621Z,13.40
2019-05-17T00:25:27.400Z,13.40
2019-05-17T00:26:01.740Z,13.40
2019-05-17T00:26:36.270Z,13.50
2019-05-17T00:27:10.032Z,13.40
2019-05-17T00:27:44.011Z,13.40
2019-05-17T00:28:18.002Z,13.40
2019-05-17T00:28:51.427Z,13.40
2019-05-17T00:29:26.433Z,13.40
2019-05-17T00:30:00.576Z,13.40
2019-05-17T00:30:34.014Z,13.40
2019-05-17T00:31:08.004Z,13.40
2019-05-17T00:31:41.979Z,13.40
2019-05-17T00:32:17.087Z,13.40
2019-05-17T00:32:51.030Z,13.40
2019-05-17T00:33:27.075Z,13.40
2019-05-17T00:34:00.069Z,13.40
2019-05-17T00:34:34.033Z,13.40
2019-05-17T00:35:08.001Z,13.40
2019-05-17T00:35:41.555Z,13.40
2019-05-17T00:36:17.610Z,13.40
2019-05-17T00:36:51.186Z,13.40
2019-05-17T00:37:26.450Z,13.40
2019-05-17T00:38:00.231Z,13.40
2019-05-17T00:38:47.203Z,13.40
2019-05-17T00:39:09.278Z,13.40
2019-05-17T00:39:43.249Z,13.40
2019-05-17T00:40:17.303Z,13.40
2019-05-17T00:40:50.700Z,13.40
2019-05-17T00:41:26.725Z,13.40
2019-05-17T00:42:00.325Z,13.40
2019-05-17T00:42:33.764Z,13.40
2019-05-17T00:43:07.748Z,13.40
2019-05-17T00:43:41.721Z,13.40
2019-05-17T00:44:16.773Z,13.40
2019-05-17T00:44:50.764Z,13.40
2019-05-17T00:45:26.774Z,13.40
2019-05-17T00:45:59.885Z,13.40
2019-05-17T00:46:33.855Z,13.40
2019-05-17T00:47:07.840Z,13.40
2019-05-17T00:47:41.280Z,13.40
2019-05-17T00:48:17.123Z,13.40
2019-05-17T00:48:50.894Z,13.40
2019-05-17T00:49:26.326Z,13.40
2019-05-17T00:49:59.930Z,13.40
2019-05-17T00:50:33.906Z,13.40
2019-05-17T00:51:10.204Z,13.40
2019-05-17T00:51:42.955Z,13.40
2019-05-17T00:52:16.937Z,13.40
2019-05-17T00:52:50.359Z,13.40
2019-05-17T00:53:24.355Z,13.40
2019-05-17T00:54:00.000Z,13.40
2019-05-17T00:54:33.421Z,13.40
2019-05-17T00:55:07.759Z,13.40
2019-05-17T00:55:41.745Z,13.40
2019-05-17T00:56:16.980Z,13.40
2019-05-17T00:56:50.779Z,13.40
2019-05-17T00:57:27.187Z,13.40
2019-05-17T00:57:59.819Z,13.40
2019-05-17T00:58:33.798Z,13.40
2019-05-17T00:59:07.793Z,13.40
2019-05-17T00:59:41.231Z,13.40
2019-05-17T01:00:17.097Z,13.40
2019-05-17T01:00:50.906Z,13.40
2019-05-17T01:01:26.900Z,13.30
2019-05-17T01:02:00.213Z,13.40
2019-05-17T01:02:36.223Z,13.40
2019-05-17T01:03:09.244Z,13.30
2019-05-17T01:03:43.283Z,13.40
2019-05-17T01:04:17.507Z,13.40
2019-05-17T01:04:51.067Z,13.40
2019-05-17T01:05:27.333Z,13.40
2019-05-17T01:06:00.685Z,13.40
2019-05-17T01:06:34.105Z,13.40
2019-05-17T01:07:08.647Z,13.40
2019-05-17T01:07:42.619Z,13.40
2019-05-17T01:08:17.462Z,13.40
2019-05-17T01:09:00.927Z,13.40
2019-05-17T01:09:27.464Z,13.40
2019-05-17T01:10:00.869Z,13.40
2019-05-17T01:10:36.900Z,13.30
2019-05-17T01:11:10.496Z,13.30
2019-05-17T01:11:43.909Z,13.40
2019-05-17T01:12:17.881Z,13.40
2019-05-17T01:12:51.850Z,13.40
2019-05-17T01:13:26.691Z,13.40
2019-05-17T01:14:00.849Z,13.40
2019-05-17T01:14:37.066Z,13.40
2019-05-17T01:15:10.525Z,13.40
2019-05-17T01:15:44.500Z,13.40
2019-05-17T01:16:18.493Z,13.40
2019-05-17T01:16:51.944Z,13.40
2019-05-17T01:17:27.073Z,13.40
2019-05-17T01:18:01.384Z,13.40
2019-05-17T01:18:36.182Z,13.40
2019-05-17T01:19:10.269Z,13.40
2019-05-17T01:19:44.247Z,13.40
2019-05-17T01:20:17.667Z,13.40
2019-05-17T01:20:51.723Z,13.40
2019-05-17T01:21:26.298Z,13.40
2019-05-17T01:21:59.940Z,13.40
2019-05-17T01:22:36.528Z,13.40
2019-05-17T01:23:10.129Z,13.40
2019-05-17T01:23:43.551Z,13.40
2019-05-17T01:24:17.581Z,13.40
2019-05-17T01:24:51.596Z,13.40
2019-05-17T01:25:27.144Z,13.40
2019-05-17T01:26:00.636Z,13.40
2019-05-17T01:26:34.611Z,13.40
2019-05-17T01:27:08.027Z,13.30
2019-05-17T01:27:42.021Z,13.40
2019-05-17T01:28:16.380Z,13.40
2019-05-17T01:28:49.940Z,13.40
2019-05-17T01:29:23.919Z,13.40
2019-05-17T01:29:57.969Z,13.40
2019-05-17T01:30:31.384Z,13.40
2019-05-17T01:31:06.692Z,13.40
2019-05-17T01:31:41.037Z,13.40
2019-05-17T01:32:14.450Z,13.40
2019-05-17T01:32:48.433Z,13.40
2019-05-17T01:33:22.429Z,13.40
2019-05-17T01:33:56.541Z,13.40
2019-05-17T01:34:30.647Z,13.40
2019-05-17T01:35:07.307Z,13.40
2019-05-17T01:35:40.973Z,13.40
2019-05-17T01:36:17.151Z,13.40
2019-05-17T01:36:50.567Z,13.40
2019-05-17T01:37:23.985Z,13.40
2019-05-17T01:37:57.966Z,13.40
2019-05-17T01:38:31.940Z,13.40
2019-05-17T01:39:15.185Z,13.40
2019-05-17T01:39:41.627Z,13.40
2019-05-17T01:40:17.548Z,13.40
2019-05-17T01:40:50.753Z,13.40
2019-05-17T01:41:26.678Z,13.40
2019-05-17T01:42:00.343Z,13.40
2019-05-17T01:42:33.767Z,13.40
2019-05-17T01:43:08.075Z,13.40
2019-05-17T01:43:42.319Z,13.40
2019-05-17T01:44:16.717Z,13.30
2019-05-17T01:44:50.855Z,13.40
2019-05-17T01:45:26.823Z,13.40
2019-05-17T01:45:59.903Z,13.40
2019-05-17T01:46:33.880Z,13.40
2019-05-17T01:47:07.858Z,13.30
2019-05-17T01:47:41.284Z,13.40
2019-05-17T01:48:16.404Z,13.40
2019-05-17T01:48:50.427Z,13.40
2019-05-17T01:49:23.843Z,13.40
2019-05-17T01:49:57.818Z,13.40
2019-05-17T01:50:31.814Z,13.40
2019-05-17T01:51:07.317Z,13.40
2019-05-17T01:51:41.042Z,13.40
2019-05-17T01:52:16.760Z,13.30
2019-05-17T01:52:50.074Z,13.40
2019-05-17T01:53:24.052Z,13.40
2019-05-17T01:53:58.024Z,13.40
2019-05-17T01:54:31.442Z,13.40
2019-05-17T01:55:09.943Z,13.40
2019-05-17T01:55:43.918Z,13.40
2019-05-17T01:56:17.365Z,13.40
2019-05-17T01:56:51.355Z,13.40
2019-05-17T01:57:27.270Z,13.40
2019-05-17T01:58:00.401Z,13.40
2019-05-17T01:58:36.448Z,13.40
2019-05-17T01:59:10.011Z,13.40
2019-05-17T01:59:43.433Z,13.40
2019-05-17T02:00:17.768Z,13.40
2019-05-17T02:00:52.089Z,13.40
2019-05-17T02:01:27.539Z,13.40
2019-05-17T02:02:02.251Z,13.40
2019-05-17T02:02:47.116Z,13.40
2019-05-17T02:03:20.846Z,13.40
2019-05-17T02:03:54.888Z,13.40
2019-05-17T02:04:28.864Z,13.40
2019-05-17T02:05:02.288Z,13.40
2019-05-17T02:05:37.180Z,13.40
2019-05-17T02:06:11.644Z,13.40
2019-05-17T02:06:46.709Z,13.40
2019-05-17T02:07:20.695Z,13.40
2019-05-17T02:07:56.830Z,13.40
2019-05-17T02:08:29.837Z,13.40
2019-05-17T02:09:06.367Z,13.40
2019-05-17T02:09:41.718Z,13.40
2019-05-17T02:10:16.720Z,13.40
2019-05-17T02:10:51.155Z,13.40
2019-05-17T02:11:26.938Z,13.40
2019-05-17T02:12:00.280Z,13.40
2019-05-17T02:12:34.242Z,13.40
2019-05-17T02:13:08.238Z,13.40
2019-05-17T02:13:41.681Z,13.40
2019-05-17T02:14:16.536Z,13.40
2019-05-17T02:14:50.725Z,13.40
2019-05-17T02:15:26.636Z,13.40
2019-05-17T02:15:59.767Z,13.40
2019-05-17T02:16:33.741Z,13.40
2019-05-17T02:17:07.161Z,13.40
2019-05-17T02:17:41.153Z,13.40
2019-05-17T02:18:17.210Z,13.40
2019-05-17T02:18:50.207Z,13.40
2019-05-17T02:19:26.428Z,13.40
2019-05-17T02:19:59.827Z,13.40
2019-05-17T02:20:33.244Z,13.40
2019-05-17T02:21:07.226Z,13.40
2019-05-17T02:21:41.225Z,13.40
2019-05-17T02:22:16.756Z,13.40
2019-05-17T02:22:50.272Z,13.40
2019-05-17T02:23:26.850Z,13.40
2019-05-17T02:23:59.319Z,13.40
2019-05-17T02:24:33.316Z,13.40
2019-05-17T02:25:11.871Z,13.40
2019-05-17T02:25:47.222Z,13.40
2019-05-17T02:26:20.926Z,13.40
2019-05-17T02:26:56.926Z,13.40
2019-05-17T02:27:37.556Z,13.40
2019-05-17T02:28:05.584Z,13.40
2019-05-17T02:28:41.335Z,13.40
2019-05-17T02:29:14.620Z,13.40
2019-05-17T02:29:48.610Z,13.40
2019-05-17T02:30:23.479Z,13.40
2019-05-17T02:30:57.326Z,13.40
2019-05-17T02:31:32.843Z,13.40
2019-05-17T02:32:06.920Z,13.40
2019-05-17T02:32:42.808Z,13.40
2019-05-17T02:33:15.962Z,13.40
2019-05-17T02:33:49.935Z,13.50
2019-05-17T02:34:23.472Z,13.40
2019-05-17T02:34:57.431Z,13.40
2019-05-17T02:35:33.630Z,13.40
2019-05-17T02:36:06.514Z,13.40
2019-05-17T02:36:43.048Z,13.40
2019-05-17T02:37:16.103Z,13.50
2019-05-17T02:37:49.529Z,13.40
2019-05-17T02:38:23.506Z,13.50
2019-05-17T02:38:57.481Z,13.40
2019-05-17T02:39:32.761Z,13.40
2019-05-17T02:40:08.529Z,13.50
2019-05-17T02:40:43.220Z,13.50
2019-05-17T02:41:16.993Z,13.40
2019-05-17T02:41:53.337Z,13.50
2019-05-17T02:42:26.605Z,13.50
2019-05-17T02:43:02.948Z,13.50
2019-05-17T02:43:35.646Z,13.50
2019-05-17T02:44:12.739Z,13.50
2019-05-17T02:44:44.701Z,13.50
2019-05-17T02:45:18.669Z,13.40
2019-05-17T02:45:52.986Z,13.50
2019-05-17T02:46:26.564Z,13.50
2019-05-17T02:47:03.208Z,13.40
2019-05-17T02:47:36.207Z,13.50
2019-05-17T02:48:09.614Z,13.50
2019-05-17T02:48:43.658Z,13.40
2019-05-17T02:49:17.636Z,13.50
2019-05-17T02:49:52.547Z,13.40
2019-05-17T02:50:26.735Z,13.40
2019-05-17T02:51:03.459Z,13.50
2019-05-17T02:51:35.775Z,13.50
2019-05-17T02:52:12.267Z,13.50
2019-05-17T02:52:45.395Z,13.40
2019-05-17T02:53:18.844Z,13.50
2019-05-17T02:53:52.825Z,13.40
2019-05-17T02:54:26.805Z,13.50
2019-05-17T02:55:03.691Z,13.40
2019-05-17T02:55:35.843Z,13.50
2019-05-17T02:56:13.204Z,13.50
2019-05-17T02:56:45.131Z,13.40
2019-05-17T02:57:19.104Z,13.50
2019-05-17T02:57:53.148Z,13.50
2019-05-17T02:58:26.613Z,13.50
2019-05-17T02:59:03.655Z,13.50
2019-05-17T02:59:36.597Z,13.50
2019-05-17T03:00:12.973Z,13.50
2019-05-17T03:00:45.647Z,13.50
2019-05-17T03:01:19.630Z,13.50
2019-05-17T03:01:53.050Z,13.50
2019-05-17T03:02:28.129Z,13.40
2019-05-17T03:03:03.459Z,13.50
2019-05-17T03:03:37.297Z,13.50
2019-05-17T03:04:13.004Z,13.50
2019-05-17T03:04:46.934Z,13.50
2019-05-17T03:05:23.185Z,13.50
2019-05-17T03:05:55.973Z,13.50
2019-05-17T03:06:32.591Z,13.50
2019-05-17T03:07:05.022Z,13.50
2019-05-17T03:07:38.988Z,13.50
2019-05-17T03:08:12.964Z,13.50
2019-05-17T03:08:46.389Z,13.50
2019-05-17T03:09:22.878Z,13.50
2019-05-17T03:10:12.439Z,13.50
2019-05-17T03:10:33.577Z,13.50
2019-05-17T03:11:06.705Z,13.50
2019-05-17T03:11:42.943Z,13.50
2019-05-17T03:12:15.756Z,13.50
2019-05-17T03:12:52.724Z,13.50
2019-05-17T03:13:25.349Z,13.50
2019-05-17T03:13:58.775Z,13.50
2019-05-17T03:14:33.002Z,13.50
2019-05-17T03:15:07.112Z,13.50
2019-05-17T03:15:43.262Z,13.60
2019-05-17T03:16:16.202Z,13.50
2019-05-17T03:16:53.386Z,13.50
2019-05-17T03:17:25.242Z,13.50
2019-05-17T03:17:59.233Z,13.60
2019-05-17T03:18:33.692Z,13.60
2019-05-17T03:19:07.422Z,13.50
2019-05-17T03:19:43.534Z,13.50
2019-05-17T03:20:17.035Z,13.60
2019-05-17T03:20:52.521Z,13.60
2019-05-17T03:21:26.300Z,13.60
2019-05-17T03:22:04.423Z,13.60
2019-05-17T03:22:35.369Z,13.60
2019-05-17T03:23:12.434Z,13.50
2019-05-17T03:23:44.952Z,13.50
2019-05-17T03:24:18.382Z,13.50
2019-05-17T03:24:53.289Z,13.50
2019-05-17T03:25:27.394Z,13.60
2019-05-17T03:26:03.712Z,13.60
2019-05-17T03:26:36.443Z,13.60
2019-05-17T03:27:13.460Z,13.60
2019-05-17T03:27:45.527Z,13.50
2019-05-17T03:28:23.239Z,13.60
2019-05-17T03:28:55.119Z,13.50
2019-05-17T03:29:28.546Z,13.50
2019-05-17T03:30:04.027Z,13.60
2019-05-17T03:30:39.417Z,13.50
2019-05-17T03:31:16.593Z,13.50
2019-05-17T03:31:58.037Z,13.50
2019-05-17T03:32:26.935Z,13.50
2019-05-17T03:33:06.148Z,13.50
2019-05-17T03:33:36.726Z,13.50
2019-05-17T03:34:16.779Z,13.60
2019-05-17T03:34:47.779Z,13.50
2019-05-17T03:35:26.362Z,13.60
2019-05-17T03:35:57.627Z,13.50
2019-05-17T03:36:36.362Z,13.50
2019-05-17T03:37:07.782Z,13.50
2019-05-17T03:37:43.759Z,13.50
2019-05-17T03:38:17.061Z,13.60
2019-05-17T03:38:53.416Z,13.50
2019-05-17T03:39:26.657Z,13.50
2019-05-17T03:40:04.735Z,13.60
2019-05-17T03:41:03.451Z,13.50
2019-05-17T03:41:22.798Z,13.50
2019-05-17T03:41:46.449Z,13.50
2019-05-17T03:42:22.661Z,13.50
2019-05-17T03:42:56.071Z,13.60
2019-05-17T03:43:29.513Z,13.60
2019-05-17T03:44:03.661Z,13.60
2019-05-17T03:44:37.869Z,13.60
2019-05-17T03:45:13.811Z,13.60
2019-05-17T03:45:46.910Z,13.60
2019-05-17T03:46:23.273Z,13.60
2019-05-17T03:46:55.945Z,13.60
2019-05-17T03:47:33.171Z,13.60
2019-05-17T03:48:05.547Z,13.60
2019-05-17T03:48:38.989Z,13.60
2019-05-17T03:49:13.251Z,13.60
2019-05-17T03:49:47.250Z,13.60
2019-05-17T03:50:22.724Z,13.60
2019-05-17T03:50:56.311Z,13.60
2019-05-17T03:51:33.050Z,13.60
2019-05-17T03:52:05.353Z,13.60
2019-05-17T03:52:39.329Z,13.60
2019-05-17T03:53:13.373Z,13.60
2019-05-17T03:53:46.820Z,13.60
2019-05-17T03:54:22.604Z,13.60
2019-05-17T03:54:56.463Z,13.60
2019-05-17T03:55:32.780Z,13.60
2019-05-17T03:56:05.499Z,13.70
2019-05-17T03:56:42.514Z,13.60
2019-05-17T03:57:14.567Z,13.70
2019-05-17T03:57:48.587Z,13.70
2019-05-17T03:58:23.413Z,13.70
2019-05-17T03:58:57.196Z,13.70
2019-05-17T03:59:33.485Z,13.70
2019-05-17T04:00:08.626Z,13.70
2019-05-17T04:00:42.819Z,13.70
2019-05-17T04:01:17.248Z,13.70
2019-05-17T04:01:52.762Z,13.70
2019-05-17T04:02:26.444Z,13.70
2019-05-17T04:03:02.900Z,13.80
2019-05-17T04:03:36.059Z,13.70
2019-05-17T04:04:09.469Z,13.80
2019-05-17T04:04:43.444Z,13.80
2019-05-17T04:05:17.421Z,13.80
2019-05-17T04:05:52.911Z,13.80
2019-05-17T04:06:26.507Z,13.80
2019-05-17T04:07:03.352Z,13.80
2019-05-17T04:07:35.542Z,13.80
2019-05-17T04:08:09.518Z,13.90
2019-05-17T04:08:43.489Z,13.90
2019-05-17T04:09:16.911Z,13.80
2019-05-17T04:09:53.185Z,13.80
2019-05-17T04:10:26.512Z,13.80
2019-05-17T04:11:16.194Z,13.90
2019-05-17T04:11:36.717Z,13.90
2019-05-17T04:12:13.643Z,13.90
2019-05-17T04:12:46.038Z,13.90
2019-05-17T04:13:23.119Z,13.90
2019-05-17T04:13:55.619Z,13.90
2019-05-17T04:14:29.042Z,13.90
2019-05-17T04:15:03.616Z,14.00
2019-05-17T04:15:37.996Z,14.00
2019-05-17T04:16:13.953Z,14.00
2019-05-17T04:16:47.127Z,14.00
2019-05-17T04:17:22.794Z,14.10
2019-05-17T04:17:56.356Z,14.10
2019-05-17T04:18:33.458Z,14.10
2019-05-17T04:19:05.956Z,14.10
2019-05-17T04:19:42.383Z,14.10
2019-05-17T04:20:15.156Z,14.10
2019-05-17T04:20:52.533Z,14.10
2019-05-17T04:21:24.272Z,14.10
2019-05-17T04:21:58.246Z,14.20
2019-05-17T04:22:33.170Z,14.20
2019-05-17T04:23:06.957Z,14.20
2019-05-17T04:23:42.898Z,14.20
2019-05-17T04:24:16.574Z,14.20
2019-05-17T04:24:52.464Z,14.30
2019-05-17T04:25:25.625Z,14.30
2019-05-17T04:25:59.592Z,14.30
2019-05-17T04:26:33.010Z,14.30
2019-05-17T04:27:06.981Z,14.30
2019-05-17T04:27:43.669Z,14.40
2019-05-17T04:28:16.032Z,14.40
2019-05-17T04:28:52.949Z,14.40
2019-05-17T04:29:26.292Z,14.40
2019-05-17T04:30:03.308Z,14.40
2019-05-17T04:30:36.086Z,14.40
2019-05-17T04:31:13.208Z,14.50
2019-05-17T04:31:45.172Z,14.50
2019-05-17T04:32:19.440Z,14.50
2019-05-17T04:32:53.607Z,14.50
2019-05-17T04:33:27.027Z,14.50
2019-05-17T04:34:02.921Z,14.50
2019-05-17T04:34:36.998Z,14.60
2019-05-17T04:35:13.023Z,14.60
2019-05-17T04:35:46.047Z,14.60
2019-05-17T04:36:22.571Z,14.60
2019-05-17T04:36:55.411Z,14.60
2019-05-17T04:37:29.407Z,14.70
2019-05-17T04:38:04.856Z,14.70
2019-05-17T04:38:43.580Z,14.70
2019-05-17T04:39:22.389Z,14.70
2019-05-17T04:39:57.022Z,14.70
2019-05-17T04:40:34.016Z,14.70
2019-05-17T04:41:06.561Z,14.70
2019-05-17T04:41:49.090Z,14.80
2019-05-17T04:42:15.612Z,14.80
2019-05-17T04:42:52.444Z,14.80
2019-05-17T04:43:25.206Z,14.80
2019-05-17T04:43:58.620Z,14.80
2019-05-17T04:44:32.587Z,14.80
2019-05-17T04:45:06.631Z,14.80
2019-05-17T04:45:42.629Z,14.80
2019-05-17T04:46:15.793Z,14.80
2019-05-17T04:46:49.763Z,14.90
2019-05-17T04:47:24.374Z,14.90
2019-05-17T04:47:58.346Z,14.90
2019-05-17T04:48:32.831Z,14.90
2019-05-17T04:49:06.538Z,15.00
2019-05-17T04:49:43.727Z,15.00
2019-05-17T04:50:16.123Z,15.00
2019-05-17T04:50:49.563Z,15.00
2019-05-17T04:51:23.556Z,15.00
2019-05-17T04:51:57.561Z,15.00
2019-05-17T04:52:33.546Z,15.00
2019-05-17T04:53:06.929Z,15.00
2019-05-17T04:53:43.064Z,15.00
2019-05-17T04:54:16.004Z,15.00
2019-05-17T04:54:53.382Z,15.10
2019-05-17T04:55:25.657Z,15.00
2019-05-17T04:55:59.083Z,15.10
2019-05-17T04:56:33.531Z,15.10
2019-05-17T04:57:07.952Z,15.10
2019-05-17T04:57:43.840Z,15.10
2019-05-17T04:58:17.011Z,15.10
2019-05-17T04:58:54.097Z,15.10
2019-05-17T04:59:26.049Z,15.10
2019-05-17T05:00:03.874Z,15.10
2019-05-17T05:00:35.652Z,15.10
2019-05-17T05:01:09.073Z,15.10
2019-05-17T05:01:43.736Z,15.20
2019-05-17T05:02:17.898Z,15.20
2019-05-17T05:02:52.735Z,15.20
2019-05-17T05:03:26.994Z,15.20
2019-05-17T05:04:03.532Z,15.20
2019-05-17T05:04:38.635Z,15.20
2019-05-17T05:05:13.597Z,15.20
2019-05-17T05:05:47.977Z,15.20
2019-05-17T05:06:23.312Z,15.20
2019-05-17T05:06:57.020Z,15.20
2019-05-17T05:07:33.547Z,15.30
2019-05-17T05:08:06.081Z,15.30
2019-05-17T05:08:42.542Z,15.30
2019-05-17T05:09:15.702Z,15.30
2019-05-17T05:09:52.166Z,15.40
2019-05-17T05:10:24.743Z,15.30
2019-05-17T05:10:58.712Z,15.40
2019-05-17T05:11:32.843Z,15.40
2019-05-17T05:12:07.125Z,15.40
2019-05-17T05:12:43.441Z,15.40
2019-05-17T05:13:16.266Z,15.40
2019-05-17T05:13:52.975Z,15.40
2019-05-17T05:14:26.130Z,15.40
2019-05-17T05:14:59.552Z,15.40
2019-05-17T05:15:44.793Z,15.40
2019-05-17T05:16:19.005Z,15.40
2019-05-17T05:16:52.919Z,15.40
2019-05-17T05:17:27.201Z,15.30
2019-05-17T05:18:02.339Z,15.30
2019-05-17T05:18:36.096Z,15.30
2019-05-17T05:19:12.876Z,15.40
2019-05-17T05:19:45.732Z,15.30
2019-05-17T05:20:21.988Z,15.40
2019-05-17T05:20:54.771Z,15.40
2019-05-17T05:21:28.747Z,15.40
2019-05-17T05:22:04.636Z,15.40
2019-05-17T05:22:37.794Z,15.30
2019-05-17T05:23:12.934Z,15.40
2019-05-17T05:23:46.987Z,15.40
2019-05-17T05:24:22.240Z,15.40
2019-05-17T05:24:56.659Z,15.40
2019-05-17T05:25:32.191Z,15.40
2019-05-17T05:26:05.727Z,15.30
2019-05-17T05:26:39.716Z,15.40
2019-05-17T05:27:13.131Z,15.40
2019-05-17T05:27:47.118Z,15.30
2019-05-17T05:28:22.492Z,15.40
2019-05-17T05:28:56.280Z,15.40
2019-05-17T05:29:32.098Z,15.40
2019-05-17T05:30:07.501Z,15.40
2019-05-17T05:30:42.234Z,15.40
2019-05-17T05:31:16.640Z,15.40
2019-05-17T05:31:51.775Z,15.40
2019-05-17T05:32:25.606Z,15.40
2019-05-17T05:33:01.861Z,15.40
2019-05-17T05:33:35.204Z,15.40
2019-05-17T05:34:08.629Z,15.40
2019-05-17T05:34:43.251Z,15.40
2019-05-17T05:35:18.225Z,15.40
2019-05-17T05:35:51.841Z,15.40
2019-05-17T05:36:26.036Z,15.40
2019-05-17T05:37:01.921Z,15.40
2019-05-17T05:37:35.097Z,15.40
2019-05-17T05:38:09.071Z,15.50
2019-05-17T05:38:43.047Z,15.50
2019-05-17T05:39:16.468Z,15.50
2019-05-17T05:39:52.401Z,15.50
2019-05-17T05:40:26.131Z,15.50
2019-05-17T05:41:01.614Z,15.50
2019-05-17T05:41:35.231Z,15.50
2019-05-17T05:42:11.589Z,15.50
2019-05-17T05:42:44.316Z,15.50
2019-05-17T05:43:18.292Z,15.50
2019-05-17T05:43:52.656Z,15.50
2019-05-17T05:44:26.262Z,15.50
2019-05-17T05:45:00.276Z,15.60
2019-05-17T05:45:35.905Z,15.60
2019-05-17T05:46:11.535Z,15.60
2019-05-17T05:46:44.948Z,15.60
2019-05-17T05:47:18.917Z,15.60
2019-05-17T05:47:52.366Z,15.60
2019-05-17T05:48:26.355Z,15.60
2019-05-17T05:49:01.821Z,15.60
2019-05-17T05:49:35.598Z,15.60
2019-05-17T05:50:12.176Z,15.60
2019-05-17T05:50:45.760Z,15.70
2019-05-17T05:51:21.473Z,15.70
2019-05-17T05:51:54.802Z,15.70
2019-05-17T05:52:28.784Z,15.70
2019-05-17T05:53:02.786Z,15.70
2019-05-17T05:53:36.769Z,15.70
2019-05-17T05:54:12.304Z,15.70
2019-05-17T05:54:45.884Z,15.80
2019-05-17T05:55:23.127Z,15.80
2019-05-17T05:55:55.493Z,15.80
2019-05-17T05:56:28.908Z,15.80
2019-05-17T05:57:02.891Z,15.80
2019-05-17T05:57:36.933Z,15.80
2019-05-17T05:58:12.118Z,15.80
2019-05-17T05:58:45.996Z,15.80
2019-05-17T05:59:22.299Z,15.80
2019-05-17T05:59:55.085Z,15.90
2019-05-17T06:00:29.060Z,15.90
2019-05-17T06:01:03.027Z,15.90
2019-05-17T06:01:36.440Z,15.90
2019-05-17T06:02:12.391Z,15.90
2019-05-17T06:02:46.029Z,15.80
2019-05-17T06:03:19.451Z,15.80
2019-05-17T06:03:53.500Z,15.90
2019-05-17T06:04:27.469Z,15.90
2019-05-17T06:05:02.042Z,15.90
2019-05-17T06:05:36.485Z,15.90
2019-05-17T06:06:12.321Z,15.90
2019-05-17T06:06:45.533Z,15.90
2019-05-17T06:07:21.477Z,15.90
2019-05-17T06:07:55.127Z,15.90
2019-05-17T06:08:28.551Z,15.90
2019-05-17T06:09:02.871Z,15.90
2019-05-17T06:09:37.008Z,15.90
2019-05-17T06:10:12.813Z,15.90
2019-05-17T06:10:46.212Z,15.90
2019-05-17T06:11:21.612Z,15.90
2019-05-17T06:11:55.124Z,15.90
2019-05-17T06:12:29.106Z,15.90
2019-05-17T06:13:03.379Z,15.90
2019-05-17T06:13:36.931Z,15.80
2019-05-17T06:14:12.136Z,15.90
2019-05-17T06:14:46.387Z,15.80
2019-05-17T06:15:21.851Z,15.80
2019-05-17T06:15:55.433Z,15.80
2019-05-17T06:16:31.956Z,15.80
2019-05-17T06:17:04.544Z,15.80
2019-05-17T06:17:38.484Z,15.80
2019-05-17T06:18:12.683Z,15.80
2019-05-17T06:18:46.190Z,15.80
2019-05-17T06:19:22.232Z,15.80
2019-05-17T06:19:55.787Z,15.80
2019-05-17T06:20:29.277Z,15.80
2019-05-17T06:21:03.323Z,15.80
2019-05-17T06:21:37.317Z,15.80
2019-05-17T06:22:11.970Z,15.70
2019-05-17T06:22:47.952Z,15.80
2019-05-17T06:23:23.410Z,15.80
2019-05-17T06:23:57.044Z,15.80
2019-05-17T06:24:31.894Z,15.80
2019-05-17T06:25:07.061Z,15.80
2019-05-17T06:25:43.129Z,15.80
2019-05-17T06:26:18.064Z,15.80
2019-05-17T06:26:52.535Z,15.80
2019-05-17T06:27:26.163Z,15.80
2019-05-17T06:28:01.586Z,15.80
2019-05-17T06:28:35.804Z,15.80
2019-05-17T06:29:11.624Z,15.80
2019-05-17T06:29:44.849Z,15.70
2019-05-17T06:30:21.925Z,15.80
2019-05-17T06:30:54.853Z,15.80
2019-05-17T06:31:28.828Z,15.70
2019-05-17T06:32:02.872Z,15.80
2019-05-17T06:32:36.301Z,15.70
2019-05-17T06:33:11.897Z,15.70
2019-05-17T06:33:45.938Z,15.70
2019-05-17T06:34:19.355Z,15.70
2019-05-17T06:34:53.341Z,15.70
2019-05-17T06:35:27.316Z,15.70
2019-05-17T06:36:02.594Z,15.70
2019-05-17T06:36:36.355Z,15.70
2019-05-17T06:37:12.718Z,15.70
2019-05-17T06:37:45.397Z,15.70
2019-05-17T06:38:19.375Z,15.70
2019-05-17T06:38:53.376Z,15.70
2019-05-17T06:39:26.823Z,15.70
2019-05-17T06:40:02.364Z,15.70
2019-05-17T06:40:36.584Z,15.70
2019-05-17T06:41:12.254Z,15.70
2019-05-17T06:41:45.657Z,15.70
2019-05-17T06:42:21.674Z,15.70
2019-05-17T06:42:54.767Z,15.70
2019-05-17T06:43:28.728Z,15.70
2019-05-17T06:44:03.004Z,15.70
2019-05-17T06:44:36.467Z,15.80
2019-05-17T06:45:12.432Z,15.80
2019-05-17T06:45:46.077Z,15.80
2019-05-17T06:46:21.805Z,15.80
2019-05-17T06:46:55.111Z,15.80
2019-05-17T06:47:29.084Z,15.80
2019-05-17T06:48:02.668Z,15.80
2019-05-17T06:48:37.033Z,15.90
2019-05-17T06:49:11.772Z,15.90
2019-05-17T06:49:45.510Z,15.90
2019-05-17T06:50:19.519Z,15.90
2019-05-17T06:50:53.525Z,16.00
2019-05-17T06:51:26.941Z,16.00
2019-05-17T06:52:02.414Z,16.00
2019-05-17T06:52:36.537Z,16.00
2019-05-17T06:53:12.293Z,16.00
2019-05-17T06:53:45.619Z,16.10
2019-05-17T06:54:21.589Z,16.10
2019-05-17T06:54:54.705Z,16.10
2019-05-17T06:55:28.683Z,16.10
2019-05-17T06:56:02.939Z,16.20
2019-05-17T06:56:36.618Z,16.20
2019-05-17T06:57:12.736Z,16.20
2019-05-17T06:57:46.307Z,16.30
2019-05-17T06:58:22.088Z,16.30
2019-05-17T06:58:55.426Z,16.30
2019-05-17T06:59:29.397Z,16.30
2019-05-17T07:00:06.193Z,16.40
2019-05-17T07:00:40.421Z,16.40
2019-05-17T07:01:14.124Z,16.40
2019-05-17T07:01:47.566Z,16.50
2019-05-17T07:02:21.590Z,16.50
2019-05-17T07:02:55.607Z,16.50
2019-05-17T07:03:29.479Z,16.50
2019-05-17T07:04:03.591Z,16.50
2019-05-17T07:04:39.463Z,16.50
2019-05-17T07:05:14.283Z,16.60
2019-05-17T07:05:50.187Z,16.60
2019-05-17T07:06:25.679Z,16.60
2019-05-17T07:07:17.091Z,16.60
2019-05-17T07:07:50.011Z,16.60
2019-05-17T07:08:24.135Z,16.60
2019-05-17T07:08:58.117Z,16.60
2019-05-17T07:09:31.790Z,16.50
2019-05-17T07:10:05.583Z,16.60
2019-05-17T07:10:39.935Z,16.60
2019-05-17T07:11:13.889Z,16.60
2019-05-17T07:11:47.659Z,16.60
2019-05-17T07:12:21.671Z,16.60
2019-05-17T07:12:58.956Z,16.50
2019-05-17T07:13:30.747Z,16.50
2019-05-17T07:14:04.721Z,16.50
2019-05-17T07:14:40.124Z,16.50
2019-05-17T07:15:13.761Z,16.50
2019-05-17T07:15:50.646Z,16.50
2019-05-17T07:16:23.009Z,16.50
2019-05-17T07:16:56.869Z,16.50
2019-05-17T07:17:30.840Z,16.50
2019-05-17T07:18:04.451Z,16.50
2019-05-17T07:18:40.021Z,16.40
2019-05-17T07:19:13.904Z,16.50
2019-05-17T07:19:47.523Z,16.40
2019-05-17T07:20:21.291Z,16.40
2019-05-17T07:20:55.536Z,16.50
2019-05-17T07:21:29.723Z,16.50
2019-05-17T07:22:03.741Z,16.50
2019-05-17T07:22:40.451Z,16.50
2019-05-17T07:23:12.962Z,16.50
2019-05-17T07:23:46.751Z,16.50